Latest Weather Observations for Gannett Cay

IDQ60801

Issued at 7:52 pm EST Tuesday 26 January 2021 (issued every 10 minutes, with the page automatically refreshed every 10 minutes)

About weather observations | Map of weather stations | Latest weather observations for QLD | Other Formats
Station Details ID: 200831 Name: GANNET CAY Lat: -21.98 Lon: 152.47 Height: 2.3 m
Data from the previous 72 hours. | See also: Recent months for locations in Queensland
Date/Time
EST
Temp
°C
App
Temp
°C
Dew
Point
°C
Rel
Hum
%
Delta-T
°C
Wind Press
QNH
hPa
Press
MSL
hPa
Rain since
9am
mm
Dir  Spd
km/h
Gust
km/h
Spd
kts
Gust
kts
26/07:30pm 26.7 - - - - ESE 30 33 16 18 1005.9 1005.8 -
26/07:00pm 26.6 - - - - ESE 32 35 17 19 1005.7 1005.6 -
26/06:30pm 26.7 - - - - SE 30 33 16 18 1005.4 1005.3 -
26/06:00pm 27.0 - - - - SE 30 33 16 18 1005.3 1005.2 -
26/05:30pm 26.9 - - - - SE 30 35 16 19 1004.9 1004.8 -
26/05:00pm 27.2 - - - - SE 28 33 15 18 1004.6 1004.5 -
26/04:30pm 27.4 - - - - SE 26 30 14 16 1004.5 1004.4 -
26/04:00pm 27.3 - - - - SE 26 28 14 15 1004.4 1004.3 -
26/03:30pm 27.4 - - - - SE 26 30 14 16 1004.4 1004.3 -
26/03:00pm 27.4 - - - - SSE 26 30 14 16 1004.6 1004.5 -
26/02:30pm 27.3 - - - - SE 24 28 13 15 1004.9 1004.8 -
26/02:00pm 27.5 - - - - SE 22 26 12 14 1005.1 1005.0 -
26/01:30pm 27.5 - - - - SE 22 24 12 13 1005.2 1005.1 -
26/01:00pm 27.4 - - - - SSE 22 26 12 14 1005.4 1005.3 -
26/12:30pm 27.4 - - - - SE 22 26 12 14 1005.8 1005.7 -
26/12:00pm 27.4 - - - - ESE 20 24 11 13 1006.0 1005.9 -
26/11:30am 27.4 - - - - ESE 20 26 11 14 1006.2 1006.1 -
26/11:00am 27.3 - - - - ESE 24 28 13 15 1006.6 1006.5 -
26/10:30am 27.3 - - - - ESE 26 30 14 16 1006.8 1006.7 -
26/10:00am 27.3 - - - - ESE 26 30 14 16 1007.0 1006.9 -
26/09:30am 27.2 - - - - ESE 28 32 15 17 1007.0 1006.9 -
26/09:00am 27.1 - - - - ESE 28 32 15 17 1006.7 1006.6 -
26/08:30am 27.1 - - - - ESE 26 30 14 16 1006.6 1006.5 -
26/08:00am 27.1 - - - - ESE 26 30 14 16 1006.8 1006.7 -
26/07:30am 27.0 - - - - ESE 28 32 15 17 1006.6 1006.5 -
26/07:00am 26.8 - - - - ESE 26 30 14 16 1006.6 1006.5 -
26/06:30am 26.1 - - - - E 20 22 11 12 1006.4 1006.3 -
26/06:00am 25.9 - - - - E 24 28 13 15 1006.0 1005.9 -
26/05:30am 25.7 - - - - ESE 28 32 15 17 1006.0 1005.9 -
26/05:00am 26.2 - - - - SE 24 32 13 17 1005.7 1005.6 -
26/04:30am 24.9 - - - - ESE 17 19 9 10 1005.3 1005.2 -
26/04:00am 24.7 - - - - E 26 33 14 18 1005.4 1005.3 -
26/03:30am 25.4 - - - - ENE 24 30 13 16 1005.4 1005.3 -
26/03:00am 26.3 - - - - ESE 24 28 13 15 1005.6 1005.5 -
26/02:30am 26.1 - - - - ESE 22 26 12 14 1005.6 1005.5 -
26/02:00am 26.0 - - - - ESE 24 26 13 14 1006.0 1005.9 -
26/01:30am 26.1 - - - - ESE 26 30 14 16 1005.9 1005.8 -
26/01:00am 25.9 - - - - ESE 26 30 14 16 1006.3 1006.2 -
26/12:30am 25.9 - - - - ESE 24 28 13 15 1006.5 1006.4 -
26/12:00am 25.8 - - - - ESE 22 28 12 15 1006.9 1006.8 -
 
Date/Time
EST
Temp
°C
App
Temp
°C
Dew
Point
°C
Rel
Hum
%
Delta-T
°C
Wind Press
QNH
hPa
Press
MSL
hPa
Rain since
9am
mm
Dir  Spd
km/h
Gust
km/h
Spd
kts
Gust
kts
25/11:30pm 25.4 - - - - E 32 35 17 19 1007.0 1006.9 -
25/11:00pm 24.8 - - - - ENE 37 43 20 23 1007.1 1007.0 -
25/10:30pm 24.5 - - - - ENE 41 48 22 26 1007.9 1007.8 -
25/10:00pm 24.3 - - - - E 33 44 18 24 1008.0 1007.9 -
25/09:30pm 25.0 - - - - E 24 30 13 16 1007.9 1007.8 -
25/09:00pm 23.9 - - - - SE 32 37 17 20 1008.1 1008.0 -
25/08:30pm 23.5 - - - - SE 32 39 17 21 1007.9 1007.8 -
25/08:00pm 23.9 - - - - E 19 24 10 13 1007.8 1007.7 -
25/07:30pm 23.2 - - - - ESE 32 39 17 21 1007.9 1007.8 -
25/07:00pm 23.5 - - - - E 24 32 13 17 1007.6 1007.5 -
25/06:30pm 22.7 - - - - SE 30 39 16 21 1007.6 1007.5 -
25/06:00pm 22.7 - - - - SE 26 33 14 18 1007.2 1007.1 -
25/05:59pm 22.7 - - - - SE 26 33 14 18 1007.2 1007.1 -
25/05:57pm 22.8 - - - - SE 28 33 15 18 1007.0 - -
25/05:30pm 23.0 - - - - SSE 43 54 23 29 1006.7 1006.6 -
25/05:05pm 24.2 - - - - SE 30 44 16 24 1006.3 1006.2 -
25/05:03pm 24.4 - - - - SSE 37 41 20 22 1006.1 - -
25/05:00pm 25.0 - - - - E 20 35 11 19 1006.4 1006.3 -
25/04:30pm 25.4 - - - - ENE 22 26 12 14 1006.1 1006.0 -
25/04:00pm 25.5 - - - - ENE 26 30 14 16 1006.0 1005.9 -
25/03:30pm 27.0 - - - - SE 20 24 11 13 1006.2 1006.1 -
25/03:00pm 26.9 - - - - SE 22 26 12 14 1006.3 1006.2 -
25/02:30pm 26.9 - - - - ESE 22 26 12 14 1006.6 1006.5 -
25/02:00pm 26.1 - - - - SE 32 37 17 20 1006.8 1006.7 -
25/01:30pm 26.1 - - - - ESE 33 41 18 22 1006.8 1006.7 -
25/01:23pm 25.4 - - - - SE 39 48 21 26 1006.9 1006.8 -
25/01:22pm 25.3 - - - - SE 33 48 18 26 1006.6 - -
25/01:00pm 24.8 - - - - SSE 41 54 22 29 1007.3 1007.2 -
25/12:30pm 22.8 - - - - S 50 57 27 31 1008.0 1007.9 -
25/12:13pm 23.4 - - - - S 46 61 25 33 1008.0 1007.9 -
25/12:04pm 25.2 - - - - ESE 22 43 12 23 1008.2 1008.1 -
25/12:00pm 27.6 - - - - ESE 19 22 10 12 1008.0 1007.9 -
25/11:30am 27.4 - - - - ESE 22 26 12 14 1008.5 1008.4 -
25/11:00am 27.1 - - - - ESE 26 30 14 16 1008.7 1008.6 -
25/10:30am 26.7 - - - - ESE 28 30 15 16 1009.0 1008.9 -
25/10:00am 26.6 - - - - E 28 33 15 18 1008.9 1008.8 -
25/09:30am 26.5 - - - - E 26 30 14 16 1008.9 1008.8 -
25/09:00am 26.2 - - - - E 26 32 14 17 1009.0 1008.9 -
25/08:30am 25.4 - - - - E 35 41 19 22 1008.7 1008.6 -
25/08:00am 25.3 - - - - E 41 48 22 26 1008.7 1008.6 -
25/07:30am 24.7 - - - - E 35 43 19 23 1008.5 1008.4 -
25/07:04am 25.8 - - - - E 28 46 15 25 1008.4 1008.3 -
25/07:00am 25.4 - - - - E 22 39 12 21 1008.5 1008.4 -
25/06:30am 26.5 - - - - ESE 20 26 11 14 1008.5 1008.4 -
25/06:00am 26.4 - - - - E 26 30 14 16 1008.1 1008.0 -
25/05:30am 26.3 - - - - E 24 28 13 15 1008.0 1007.9 -
25/05:00am 26.1 - - - - E 22 26 12 14 1007.9 1007.8 -
25/04:30am 26.1 - - - - ENE 24 28 13 15 1007.6 1007.5 -
25/04:00am 25.9 - - - - E 28 32 15 17 1006.9 1006.8 -
25/03:30am 26.1 - - - - E 32 39 17 21 1007.0 1006.9 -
25/03:00am 25.9 - - - - E 26 32 14 17 1007.1 1007.0 -
25/02:30am 25.8 - - - - ENE 35 41 19 22 1007.5 1007.4 -
25/02:00am 25.9 - - - - ENE 35 41 19 22 1007.4 1007.3 -
25/01:30am 25.8 - - - - ENE 41 46 22 25 1007.8 1007.7 -
25/01:00am 26.3 - - - - E 41 46 22 25 1007.8 1007.7 -
25/12:30am 26.3 - - - - ESE 37 44 20 24 1008.2 1008.1 -
25/12:00am 25.9 - - - - E 35 44 19 24 1008.0 1007.9 -
 
Date/Time
EST
Temp
°C
App
Temp
°C
Dew
Point
°C
Rel
Hum
%
Delta-T
°C
Wind Press
QNH
hPa
Press
MSL
hPa
Rain since
9am
mm
Dir  Spd
km/h
Gust
km/h
Spd
kts
Gust
kts
24/11:30pm 25.2 - - - - E 33 39 18 21 1008.7 1008.6 -
24/11:00pm 25.0 - - - - E 35 41 19 22 1009.1 1009.0 -
24/10:30pm 24.7 - - - - E 32 37 17 20 1009.6 1009.5 -
24/10:00pm 23.4 - - - - E 41 52 22 28 1010.3 1010.3 -
24/09:30pm 23.9 - - - - ESE 43 50 23 27 1010.2 1010.2 -
24/09:00pm 24.1 - - - - SE 43 52 23 28 1010.0 1010.0 -
24/08:30pm 23.7 - - - - SE 44 54 24 29 1010.1 1010.1 -
24/08:00pm 23.5 - - - - SE 43 48 23 26 1009.8 1009.8 -
24/07:30pm 25.0 - - - - SE 41 48 22 26 1009.7 1009.6 -
24/07:00pm 24.2 - - - - SSE 46 54 25 29 1008.9 1008.8 -
24/06:30pm 25.4 - - - - SSE 43 52 23 28 1009.0 1008.9 -
24/06:17pm 25.5 - - - - SE 33 43 18 23 1008.9 1008.8 -
24/06:16pm 25.6 - - - - SSE 39 43 21 23 1008.6 - -
24/06:00pm 26.8 - - - - ESE 26 32 14 17 1008.9 1008.8 -
24/05:30pm 26.8 - - - - ESE 30 33 16 18 1008.4 1008.3 -
24/05:00pm 26.9 - - - - ESE 32 37 17 20 1008.1 1008.0 -
24/04:30pm 27.0 - - - - ESE 32 35 17 19 1008.1 1008.0 -
24/04:00pm 27.1 - - - - ESE 30 35 16 19 1008.1 1008.0 -
24/03:30pm 27.1 - - - - ESE 32 35 17 19 1008.2 1008.1 -
24/03:00pm 27.0 - - - - ESE 30 33 16 18 1008.2 1008.1 -
24/02:30pm 26.8 - - - - E 30 33 16 18 1008.5 1008.4 -
24/02:00pm 26.9 - - - - ESE 28 33 15 18 1008.8 1008.7 -
24/01:30pm 27.0 - - - - ESE 30 33 16 18 1008.8 1008.7 -
24/01:00pm 27.0 - - - - E 30 35 16 19 1009.0 1008.9 -
24/12:30pm 26.7 - - - - E 30 35 16 19 1009.2 1009.1 -
24/12:00pm 26.8 - - - - ESE 32 35 17 19 1009.7 1009.6 -
24/11:30am 26.6 - - - - ESE 28 32 15 17 1010.2 1010.2 -
24/11:00am 26.5 - - - - ESE 28 33 15 18 1010.8 1010.8 -
24/10:30am 26.4 - - - - ESE 32 39 17 21 1011.0 1011.0 -
24/10:00am 26.1 - - - - ESE 28 32 15 17 1011.0 1011.0 -
24/09:30am 26.1 - - - - ESE 33 39 18 21 1011.1 1011.1 -
24/09:00am 26.2 - - - - ESE 33 39 18 21 1011.0 1011.0 -
24/08:30am 26.0 - - - - ESE 35 41 19 22 1011.0 1011.0 -
24/08:00am 26.1 - - - - ESE 33 39 18 21 1010.7 1010.7 -
24/07:30am 25.7 - - - - ESE 33 41 18 22 1010.4 1010.4 -
24/07:00am 26.1 - - - - ESE 30 35 16 19 1010.3 1010.3 -
24/06:30am 26.3 - - - - ESE 30 33 16 18 1010.2 1010.2 -
24/06:00am 26.1 - - - - ESE 33 37 18 20 1009.8 1009.8 -
24/05:30am 26.1 - - - - E 32 35 17 19 1009.5 1009.4 -
24/05:00am 26.1 - - - - ESE 32 37 17 20 1009.4 1009.3 -
24/04:30am 25.8 - - - - ESE 35 41 19 22 1009.2 1009.1 -
24/04:00am 25.7 - - - - ESE 35 41 19 22 1009.2 1009.1 -
24/03:30am 25.8 - - - - ESE 33 43 18 23 1009.0 1008.9 -
24/03:00am 25.7 - - - - ESE 35 44 19 24 1009.2 1009.1 -
24/02:30am 25.1 - - - - ESE 37 52 20 28 1009.5 1009.4 -
24/02:00am 25.8 - - - - SE 33 43 18 23 1009.7 1009.6 -
24/01:30am 26.0 - - - - SE 37 43 20 23 1010.1 1010.1 -
24/01:00am 26.0 - - - - SE 39 46 21 25 1010.6 1010.6 -
24/12:30am 25.0 - - - - SE 41 56 22 30 1011.0 1011.0 -
24/12:00am 25.9 - - - - SE 37 46 20 25 1011.2 1011.2 -
 
Date/Time
EST
Temp
°C
App
Temp
°C
Dew
Point
°C
Rel
Hum
%
Delta-T
°C
Wind Press
QNH
hPa
Press
MSL
hPa
Rain since
9am
mm
Dir  Spd
km/h
Gust
km/h
Spd
kts
Gust
kts
23/11:30pm 26.2 - - - - SE 35 43 19 23 1011.6 1011.6 -
23/11:00pm 26.2 - - - - SE 39 44 21 24 1011.8 1011.8 -
23/10:30pm 26.2 - - - - SE 39 46 21 25 1011.9 1011.9 -
23/10:00pm 26.2 - - - - SE 39 44 21 24 1011.9 1011.9 -
23/09:30pm 26.3 - - - - SE 37 43 20 23 1011.9 1011.9 -
23/09:00pm 26.3 - - - - SE 39 44 21 24 1011.8 1011.8 -
23/08:30pm 26.2 - - - - SE 39 46 21 25 1011.7 1011.7 -
23/08:00pm 26.3 - - - - SE 41 44 22 24 1011.6 1011.6 -

Other formats

Comma delimited format used in spreadsheet applications
http://www.bom.gov.au/fwo/IDQ60801/IDQ60801.94379.axf

JavaScript Object Notation format (JSON) in row-major order
http://www.bom.gov.au/fwo/IDQ60801/IDQ60801.94379.json

Data quality

Most of these data are generated automatically and are frequently updated. Quality checks on data are not normally performed. It is possible for incorrect values to appear. Refer to information at About Latest Weather Observations and please check the disclaimer before using these data.